createdAt,value
2022-12-31T00:02:02.717Z,98445.19
2022-12-31T00:04:30.751Z,98451.22
2022-12-31T00:06:58.723Z,98439.34
2022-12-31T00:09:28.004Z,98454.31
2022-12-31T00:11:58.822Z,98448.84
2022-12-31T00:14:27.111Z,98458.88
2022-12-31T00:16:55.120Z,98451.22
2022-12-31T00:19:22.999Z,98459.84
2022-12-31T00:21:50.853Z,98463.91
2022-12-31T00:24:19.252Z,98456.41
2022-12-31T00:26:48.502Z,98459.47
2022-12-31T00:29:16.382Z,98469.22
2022-12-31T00:31:44.179Z,98474.00
2022-12-31T00:34:12.005Z,98467.56
2022-12-31T00:36:42.554Z,98484.34
2022-12-31T00:39:11.890Z,98485.09
2022-12-31T00:41:39.801Z,98483.53
2022-12-31T00:44:10.072Z,98477.13
2022-12-31T00:49:05.803Z,98481.06
2022-12-31T00:51:33.707Z,98487.78
2022-12-31T00:54:02.016Z,98499.78
2022-12-31T00:56:31.974Z,98492.38
2022-12-31T00:59:00.635Z,98500.66
2022-12-31T01:01:31.715Z,98507.63
2022-12-31T01:04:01.508Z,98505.38
2022-12-31T01:06:29.465Z,98510.16
2022-12-31T01:08:57.697Z,98507.94
2022-12-31T01:11:29.363Z,98513.25
2022-12-31T01:13:59.564Z,98508.22
2022-12-31T01:16:30.215Z,98517.59
2022-12-31T01:19:00.384Z,98527.13
2022-12-31T01:21:28.753Z,98520.16
2022-12-31T01:23:56.599Z,98538.88
2022-12-31T01:26:24.518Z,98543.94
2022-12-31T01:28:52.449Z,98548.69
2022-12-31T01:31:22.818Z,98549.50
2022-12-31T01:33:53.008Z,98550.25
2022-12-31T01:36:25.996Z,98561.16
2022-12-31T01:38:55.461Z,98554.97
2022-12-31T01:41:28.169Z,98561.84
2022-12-31T01:43:58.742Z,98561.84
2022-12-31T01:46:35.253Z,98566.47
2022-12-31T01:49:11.058Z,98558.03
2022-12-31T01:51:42.628Z,98560.88
2022-12-31T01:54:15.789Z,98556.53
2022-12-31T01:56:46.362Z,98558.47
2022-12-31T01:59:18.103Z,98563.66
2022-12-31T02:01:48.313Z,98572.59
2022-12-31T02:04:17.782Z,98576.94
2022-12-31T02:06:49.978Z,98569.25
2022-12-31T02:09:18.065Z,98569.94
2022-12-31T02:11:46.039Z,98573.72
2022-12-31T02:14:18.078Z,98584.34
2022-12-31T02:16:53.293Z,98568.97
2022-12-31T02:19:52.260Z,98582.81
2022-12-31T02:22:36.117Z,98578.19
2022-12-31T02:25:32.016Z,98569.22
2022-12-31T02:28:12.160Z,98584.63
2022-12-31T02:30:43.328Z,98590.31
2022-12-31T02:33:17.202Z,98585.19
2022-12-31T02:35:50.043Z,98588.53
2022-12-31T02:38:22.838Z,98599.59
2022-12-31T02:40:51.183Z,98594.44
2022-12-31T02:43:19.018Z,98591.63
2022-12-31T02:45:54.104Z,98581.81
2022-12-31T02:48:38.654Z,98579.91
2022-12-31T02:51:20.231Z,98581.81
2022-12-31T02:54:12.766Z,98582.41
2022-12-31T02:56:46.686Z,98582.81
2022-12-31T02:59:39.504Z,98579.59
2022-12-31T03:02:16.674Z,98577.22
2022-12-31T03:04:48.550Z,98574.00
2022-12-31T03:07:21.892Z,98574.84
2022-12-31T03:09:50.105Z,98573.16
2022-12-31T03:12:37.359Z,98580.47
2022-12-31T03:15:06.864Z,98579.91
2022-12-31T03:17:36.230Z,98570.66
2022-12-31T03:20:22.673Z,98568.72
2022-12-31T03:22:50.589Z,98573.44
2022-12-31T03:25:33.942Z,98575.69
2022-12-31T03:28:03.655Z,98581.72
2022-12-31T03:30:32.834Z,98575.53
2022-12-31T03:33:03.340Z,98574.44
2022-12-31T03:35:34.007Z,98578.94
2022-12-31T03:38:02.708Z,98595.88
2022-12-31T03:40:32.805Z,98592.78
2022-12-31T03:43:00.668Z,98595.88
2022-12-31T03:45:28.588Z,98589.16
2022-12-31T03:47:56.525Z,98588.56
2022-12-31T03:50:26.872Z,98585.19
2022-12-31T03:52:57.057Z,98602.97
2022-12-31T03:55:25.291Z,98591.06
2022-12-31T03:57:53.173Z,98595.81
2022-12-31T04:00:22.862Z,98595.81
2022-12-31T04:02:51.650Z,98589.09
2022-12-31T04:05:20.252Z,98596.63
2022-12-31T04:07:52.006Z,98589.94
2022-12-31T04:10:21.506Z,98590.06
2022-12-31T04:12:49.346Z,98597.03
2022-12-31T04:15:19.529Z,98603.94
2022-12-31T04:17:47.832Z,98603.22
2022-12-31T04:20:16.218Z,98601.69
2022-12-31T04:22:46.592Z,98599.16
2022-12-31T04:25:15.786Z,98604.88
2022-12-31T04:27:45.089Z,98595.19
2022-12-31T04:30:14.335Z,98583.47
2022-12-31T04:32:42.705Z,98589.88
2022-12-31T04:35:11.881Z,98596.31
2022-12-31T04:37:40.149Z,98592.78
2022-12-31T04:40:09.949Z,98601.06
2022-12-31T04:42:39.642Z,98600.38
2022-12-31T04:45:08.740Z,98612.28
2022-12-31T04:47:36.802Z,98607.66
2022-12-31T04:50:07.934Z,98615.13
2022-12-31T04:52:42.420Z,98617.91
2022-12-31T04:55:11.098Z,98623.22
2022-12-31T04:57:40.504Z,98624.34
2022-12-31T05:00:09.694Z,98632.16
2022-12-31T05:02:37.651Z,98636.38
2022-12-31T05:05:06.140Z,98640.44
2022-12-31T05:07:33.956Z,98633.31
2022-12-31T05:10:05.682Z,98628.25
2022-12-31T05:12:33.530Z,98636.81
2022-12-31T05:15:02.828Z,98643.66
2022-12-31T05:17:32.984Z,98651.50
2022-12-31T05:20:00.899Z,98641.97
2022-12-31T05:22:31.378Z,98640.00
2022-12-31T05:24:59.638Z,98644.94
2022-12-31T05:27:28.609Z,98642.81
2022-12-31T05:29:56.470Z,98648.44
2022-12-31T05:32:27.979Z,98656.53
2022-12-31T05:34:59.775Z,98645.75
2022-12-31T05:37:29.440Z,98647.19
2022-12-31T05:39:57.844Z,98651.22
2022-12-31T05:42:25.748Z,98654.44
2022-12-31T05:44:53.754Z,98651.03
2022-12-31T05:47:21.577Z,98659.38
2022-12-31T05:49:51.057Z,98655.97
2022-12-31T05:52:19.280Z,98664.25
2022-12-31T05:54:49.743Z,98663.00
2022-12-31T05:57:17.588Z,98671.94
2022-12-31T05:59:46.415Z,98665.66
2022-12-31T06:02:14.226Z,98682.59
2022-12-31T06:04:42.108Z,98676.31
2022-12-31T06:07:11.255Z,98685.53
2022-12-31T06:09:39.357Z,98689.88
2022-12-31T06:12:09.113Z,98696.44
2022-12-31T06:14:42.208Z,98689.75
2022-12-31T06:17:13.183Z,98689.75
2022-12-31T06:19:41.005Z,98697.19
2022-12-31T06:22:08.738Z,98689.47
2022-12-31T06:24:37.959Z,98690.59
2022-12-31T06:27:05.691Z,98696.66
2022-12-31T06:29:33.492Z,98692.72
2022-12-31T06:32:01.218Z,98694.28
2022-12-31T06:34:29.058Z,98694.97
2022-12-31T06:36:56.906Z,98695.25
2022-12-31T06:39:24.820Z,98711.25
2022-12-31T06:41:54.029Z,98723.16
2022-12-31T06:44:22.461Z,98716.59
2022-12-31T06:46:50.716Z,98707.34
2022-12-31T06:49:18.728Z,98702.31
2022-12-31T06:51:47.779Z,98700.91
2022-12-31T06:54:16.090Z,98687.41
2022-12-31T06:56:44.628Z,98683.22
2022-12-31T06:59:26.197Z,98679.47
2022-12-31T07:02:17.917Z,98694.47
2022-12-31T07:05:06.447Z,98689.16
2022-12-31T07:07:40.158Z,98681.69
2022-12-31T07:10:25.716Z,98678.50
2022-12-31T07:13:12.928Z,98697.25
2022-12-31T07:15:55.007Z,98688.56
2022-12-31T07:18:32.282Z,98701.44
2022-12-31T07:21:00.942Z,98695.53
2022-12-31T07:23:29.416Z,98706.78
2022-12-31T07:26:06.435Z,98711.25
2022-12-31T07:28:48.411Z,98705.13
2022-12-31T07:31:32.512Z,98711.81
2022-12-31T07:34:03.019Z,98711.09
2022-12-31T07:36:48.564Z,98711.25
2022-12-31T07:39:26.302Z,98714.34
2022-12-31T07:42:04.350Z,98716.72
2022-12-31T07:44:42.113Z,98720.78
2022-12-31T07:47:21.592Z,98721.88
2022-12-31T07:49:50.375Z,98714.91
2022-12-31T07:52:19.149Z,98707.16
2022-12-31T07:54:47.170Z,98714.00
2022-12-31T07:57:16.917Z,98727.44
2022-12-31T07:59:59.767Z,98716.97
2022-12-31T08:02:54.110Z,98725.78
2022-12-31T08:05:28.180Z,98735.28
2022-12-31T08:08:07.427Z,98740.59
2022-12-31T08:10:42.370Z,98742.81
2022-12-31T08:13:16.105Z,98744.03
2022-12-31T08:15:45.292Z,98737.63
2022-12-31T08:18:15.002Z,98747.72
2022-12-31T08:20:50.463Z,98747.66
2022-12-31T08:23:26.955Z,98760.44
2022-12-31T08:26:13.012Z,98762.28
2022-12-31T08:29:02.403Z,98738.84
2022-12-31T08:31:37.951Z,98755.59
2022-12-31T08:34:18.432Z,98742.28
2022-12-31T08:36:54.354Z,98747.41
2022-12-31T08:39:33.247Z,98757.53
2022-12-31T08:42:06.199Z,98760.63
2022-12-31T08:44:41.784Z,98763.69
2022-12-31T08:47:19.194Z,98767.53
2022-12-31T08:49:49.090Z,98770.84
2022-12-31T08:52:21.622Z,98778.63
2022-12-31T08:54:50.047Z,98800.44
2022-12-31T08:57:27.513Z,98792.28
2022-12-31T09:00:05.704Z,98803.81
2022-12-31T09:03:09.619Z,98815.53
2022-12-31T09:05:53.585Z,98811.97
2022-12-31T09:08:31.548Z,98808.16
2022-12-31T09:11:08.728Z,98791.13
2022-12-31T09:13:58.253Z,98796.53
2022-12-31T09:16:34.547Z,98807.00
2022-12-31T09:19:02.661Z,98806.81
2022-12-31T09:21:32.556Z,98814.84
2022-12-31T09:24:07.475Z,98799.84
2022-12-31T09:26:49.453Z,98802.88
2022-12-31T09:29:32.609Z,98803.25
2022-12-31T09:32:09.200Z,98797.97
2022-12-31T09:34:43.058Z,98802.16
2022-12-31T09:37:19.339Z,98807.81
2022-12-31T09:39:48.751Z,98808.13
2022-12-31T09:42:44.868Z,98811.78
2022-12-31T09:45:55.305Z,98815.09
2022-12-31T09:48:49.990Z,98801.09
2022-12-31T09:51:29.119Z,98812.50
2022-12-31T09:54:18.960Z,98806.97
2022-12-31T09:56:57.119Z,98818.97
2022-12-31T09:59:37.406Z,98801.75
2022-12-31T10:02:21.416Z,98798.75
2022-12-31T10:05:00.507Z,98801.44
2022-12-31T10:07:52.461Z,98810.81
2022-12-31T10:10:28.179Z,98815.03
2022-12-31T10:13:26.514Z,98799.22
2022-12-31T10:16:25.880Z,98808.59
2022-12-31T10:19:29.995Z,98790.72
2022-12-31T10:22:09.714Z,98797.56
2022-12-31T10:24:58.655Z,98776.88
2022-12-31T10:27:50.601Z,98782.03
2022-12-31T10:30:20.402Z,98794.25
2022-12-31T10:33:01.323Z,98787.75
2022-12-31T10:35:36.437Z,98788.47
2022-12-31T10:38:18.747Z,98794.44
2022-12-31T10:41:13.434Z,98789.44
2022-12-31T10:44:12.720Z,98784.78
2022-12-31T10:47:08.698Z,98768.13
2022-12-31T10:50:01.951Z,98773.03
2022-12-31T10:53:06.774Z,98776.41
2022-12-31T10:56:08.958Z,98775.56
2022-12-31T10:58:57.216Z,98768.69
2022-12-31T11:01:38.304Z,98767.69
2022-12-31T11:04:56.516Z,98770.50
2022-12-31T11:08:03.818Z,98775.72
2022-12-31T11:11:02.601Z,98768.84
2022-12-31T11:14:07.677Z,98757.28
2022-12-31T11:16:58.913Z,98754.75
2022-12-31T11:19:37.681Z,98753.09
2022-12-31T11:22:23.855Z,98760.47
2022-12-31T11:29:56.533Z,98762.59
2022-12-31T11:32:44.607Z,98754.91
2022-12-31T11:35:26.484Z,98744.03
2022-12-31T11:38:01.650Z,98744.03
2022-12-31T11:40:41.917Z,98747.75
2022-12-31T11:43:23.291Z,98750.41
2022-12-31T11:46:08.276Z,98743.00
2022-12-31T11:48:45.830Z,98741.63
2022-12-31T11:51:37.941Z,98737.88
2022-12-31T11:54:39.964Z,98725.28
2022-12-31T11:57:22.825Z,98735.25
2022-12-31T11:59:55.529Z,98714.75
2022-12-31T12:02:27.764Z,98725.94
2022-12-31T12:05:10.350Z,98717.41
2022-12-31T12:07:39.396Z,98718.53
2022-12-31T12:10:29.116Z,98710.88
2022-12-31T12:13:01.759Z,98712.28
2022-12-31T12:15:32.865Z,98713.56
2022-12-31T12:18:05.938Z,98715.88
2022-12-31T12:20:39.314Z,98714.38
2022-12-31T12:23:16.070Z,98710.34
2022-12-31T12:25:45.797Z,98709.00
2022-12-31T12:28:25.413Z,98714.25
2022-12-31T12:31:00.754Z,98703.31
2022-12-31T12:33:31.103Z,98698.16
2022-12-31T12:36:12.454Z,98696.94
2022-12-31T12:38:41.323Z,98697.34
2022-12-31T12:41:12.911Z,98692.56
2022-12-31T12:43:41.003Z,98703.44
2022-12-31T12:46:21.206Z,98699.16
2022-12-31T12:48:55.700Z,98687.75
2022-12-31T12:51:44.569Z,98694.25
2022-12-31T12:54:26.895Z,98691.72
2022-12-31T12:57:03.593Z,98686.34
2022-12-31T12:59:54.995Z,98682.34
2022-12-31T13:02:57.293Z,98681.75
2022-12-31T13:05:32.698Z,98682.88
2022-12-31T13:08:15.826Z,98683.38
2022-12-31T13:10:57.122Z,98684.75
2022-12-31T13:13:34.830Z,98687.78
2022-12-31T13:16:08.981Z,98678.09
2022-12-31T13:18:48.350Z,98686.50
2022-12-31T13:21:35.550Z,98681.19
2022-12-31T13:24:16.615Z,98672.09
2022-12-31T13:26:48.530Z,98676.13
2022-12-31T13:29:21.634Z,98672.78
2022-12-31T13:31:51.299Z,98677.47
2022-12-31T13:34:25.370Z,98674.97
2022-12-31T13:36:55.399Z,98661.75
2022-12-31T13:39:28.330Z,98669.13
2022-12-31T13:42:02.149Z,98656.69
2022-12-31T13:44:40.450Z,98660.09
2022-12-31T13:47:15.349Z,98659.25
2022-12-31T13:49:47.767Z,98660.56
2022-12-31T13:52:47.906Z,98659.72
2022-12-31T13:55:24.066Z,98659.38
2022-12-31T13:57:55.489Z,98652.84
2022-12-31T14:00:25.571Z,98656.56
2022-12-31T14:03:07.335Z,98663.56
2022-12-31T14:05:39.262Z,98668.47
2022-12-31T14:08:07.951Z,98665.28
2022-12-31T14:10:57.261Z,98662.44
2022-12-31T14:13:35.628Z,98666.13
2022-12-31T14:16:14.297Z,98659.78
2022-12-31T14:18:47.953Z,98658.47
2022-12-31T14:21:22.775Z,98656.94
2022-12-31T14:23:57.454Z,98657.13
2022-12-31T14:26:31.206Z,98664.19
2022-12-31T14:29:07.497Z,98654.78
2022-12-31T14:31:54.327Z,98662.31
2022-12-31T14:34:32.509Z,98664.97
2022-12-31T14:37:07.100Z,98663.81
2022-12-31T14:39:47.581Z,98666.50
2022-12-31T14:42:27.133Z,98670.56
2022-12-31T14:45:05.312Z,98672.38
2022-12-31T14:47:45.714Z,98666.84
2022-12-31T14:50:17.083Z,98674.38
2022-12-31T14:52:53.986Z,98680.44
2022-12-31T14:55:28.454Z,98685.06
2022-12-31T14:58:27.057Z,98684.41
2022-12-31T15:00:55.062Z,98691.59
2022-12-31T15:03:34.313Z,98679.25
2022-12-31T15:06:12.863Z,98682.88
2022-12-31T15:08:56.241Z,98692.25
2022-12-31T15:11:35.711Z,98687.72
2022-12-31T15:14:37.859Z,98693.22
2022-12-31T15:17:17.413Z,98694.59
2022-12-31T15:20:20.365Z,98689.88
2022-12-31T15:22:50.273Z,98689.72
2022-12-31T15:25:25.426Z,98692.03
2022-12-31T15:27:54.724Z,98692.22
2022-12-31T15:30:46.128Z,98689.19
2022-12-31T15:33:24.454Z,98690.81
2022-12-31T15:35:54.325Z,98693.81
2022-12-31T15:38:35.290Z,98689.09
2022-12-31T15:41:15.199Z,98696.44
2022-12-31T15:43:49.104Z,98694.06
2022-12-31T15:46:22.374Z,98700.41
2022-12-31T15:49:01.979Z,98700.00
2022-12-31T15:51:49.835Z,98691.88
2022-12-31T15:54:25.915Z,98707.09
2022-12-31T15:56:55.397Z,98704.34
2022-12-31T15:59:26.214Z,98715.69
2022-12-31T16:01:58.015Z,98719.66
2022-12-31T16:04:29.170Z,98727.28
2022-12-31T16:07:01.114Z,98722.72
2022-12-31T16:09:31.300Z,98725.81
2022-12-31T16:12:01.099Z,98725.97
2022-12-31T16:14:35.973Z,98734.75
2022-12-31T16:17:06.711Z,98731.41
2022-12-31T16:19:37.742Z,98733.72
2022-12-31T16:22:10.419Z,98732.03
2022-12-31T16:25:02.865Z,98736.41
2022-12-31T16:27:27.937Z,98739.31
2022-12-31T16:30:01.015Z,98743.63
2022-12-31T16:32:36.285Z,98734.88
2022-12-31T16:35:23.625Z,98732.81
2022-12-31T16:38:02.709Z,98740.00
2022-12-31T16:40:31.283Z,98731.44
2022-12-31T16:42:59.146Z,98729.56
2022-12-31T16:45:32.569Z,98737.22
2022-12-31T16:48:16.557Z,98744.56
2022-12-31T16:50:46.524Z,98737.69
2022-12-31T16:53:17.841Z,98742.78
2022-12-31T16:55:53.685Z,98734.63
2022-12-31T16:58:26.259Z,98733.56
2022-12-31T17:00:55.306Z,98732.25
2022-12-31T17:03:26.292Z,98735.31
2022-12-31T17:06:01.520Z,98734.00
2022-12-31T17:08:39.393Z,98734.59
2022-12-31T17:11:23.360Z,98737.66
2022-12-31T17:13:57.335Z,98740.47
2022-12-31T17:16:26.379Z,98743.91
2022-12-31T17:18:56.035Z,98752.59
2022-12-31T17:21:28.108Z,98755.25
2022-12-31T17:23:58.018Z,98754.69
2022-12-31T17:26:29.116Z,98757.25
2022-12-31T17:28:59.143Z,98757.97
2022-12-31T17:31:34.286Z,98757.88
2022-12-31T17:34:24.086Z,98756.56
2022-12-31T17:37:04.094Z,98757.84
2022-12-31T17:39:51.230Z,98756.28
2022-12-31T17:42:28.725Z,98761.41
2022-12-31T17:45:01.283Z,98769.09
2022-12-31T17:47:36.027Z,98756.19
2022-12-31T17:50:18.116Z,98762.38
2022-12-31T17:52:46.096Z,98766.00
2022-12-31T17:55:14.216Z,98769.41
2022-12-31T17:57:49.008Z,98767.13
2022-12-31T18:00:19.728Z,98770.91
2022-12-31T18:02:47.652Z,98771.63
2022-12-31T18:05:18.426Z,98779.75
2022-12-31T18:07:46.392Z,98772.63
2022-12-31T18:10:15.894Z,98777.84
2022-12-31T18:12:44.387Z,98771.09
2022-12-31T18:15:16.321Z,98767.16
2022-12-31T18:17:44.943Z,98769.69
2022-12-31T18:20:15.833Z,98768.84
2022-12-31T18:22:46.119Z,98768.53
2022-12-31T18:25:17.473Z,98783.16
2022-12-31T18:27:45.576Z,98785.28
2022-12-31T18:30:16.390Z,98785.16
2022-12-31T18:32:46.124Z,98779.94
2022-12-31T18:35:33.352Z,98784.31
2022-12-31T18:38:11.574Z,98778.13
2022-12-31T18:40:42.685Z,98784.31
2022-12-31T18:43:15.989Z,98785.44
2022-12-31T18:45:44.389Z,98798.78
2022-12-31T18:48:13.260Z,98791.06
2022-12-31T18:50:44.933Z,98791.06
2022-12-31T18:53:18.445Z,98793.59
2022-12-31T18:55:49.198Z,98807.34
2022-12-31T18:58:17.724Z,98805.34
2022-12-31T19:00:46.830Z,98801.72
2022-12-31T19:03:17.222Z,98803.66
2022-12-31T19:05:45.740Z,98803.38
2022-12-31T19:08:13.576Z,98803.38
2022-12-31T19:10:42.865Z,98802.53
2022-12-31T19:13:12.829Z,98802.53
2022-12-31T19:15:44.773Z,98812.09
2022-12-31T19:18:12.884Z,98803.38
2022-12-31T19:20:41.491Z,98820.25
2022-12-31T19:23:16.375Z,98818.53
2022-12-31T19:25:46.624Z,98819.94
2022-12-31T19:28:17.687Z,98818.00
2022-12-31T19:30:46.088Z,98818.31
2022-12-31T19:33:16.706Z,98813.53
2022-12-31T19:35:45.733Z,98831.50
2022-12-31T19:38:18.824Z,98830.38
2022-12-31T19:40:49.205Z,98833.72
2022-12-31T19:43:19.110Z,98827.25
2022-12-31T19:45:48.130Z,98829.63
2022-12-31T19:48:18.836Z,98830.19
2022-12-31T19:50:48.688Z,98831.50
2022-12-31T19:53:20.497Z,98835.13
2022-12-31T19:55:50.240Z,98832.91
2022-12-31T19:58:20.273Z,98830.50
2022-12-31T20:00:55.702Z,98832.06
2022-12-31T20:03:25.434Z,98823.09
2022-12-31T20:06:03.031Z,98824.19
2022-12-31T20:08:30.892Z,98828.38
2022-12-31T20:11:00.142Z,98833.59
2022-12-31T20:13:29.087Z,98831.91
2022-12-31T20:15:57.835Z,98835.66
2022-12-31T20:18:25.713Z,98834.56
2022-12-31T20:20:56.003Z,98839.75
2022-12-31T20:23:24.031Z,98837.09
2022-12-31T20:25:58.368Z,98830.38
2022-12-31T20:28:28.843Z,98837.91
2022-12-31T20:30:57.117Z,98844.38
2022-12-31T20:33:25.153Z,98840.59
2022-12-31T20:35:53.010Z,98844.66
2022-12-31T20:38:22.179Z,98839.91
2022-12-31T20:40:50.565Z,98835.53
2022-12-31T20:43:18.413Z,98833.16
2022-12-31T20:45:47.829Z,98826.56
2022-12-31T20:48:15.718Z,98829.41
2022-12-31T20:50:43.738Z,98838.94
2022-12-31T20:53:11.693Z,98839.63
2022-12-31T20:55:39.598Z,98834.59
2022-12-31T20:58:07.396Z,98839.38
2022-12-31T21:00:35.200Z,98842.28
2022-12-31T21:03:18.545Z,98843.00
2022-12-31T21:05:53.663Z,98841.88
2022-12-31T21:08:22.493Z,98847.78
2022-12-31T21:10:51.483Z,98848.06
2022-12-31T21:13:21.644Z,98846.66
2022-12-31T21:15:50.116Z,98837.13
2022-12-31T21:18:19.698Z,98843.16
2022-12-31T21:20:48.111Z,98845.25
2022-12-31T21:23:16.404Z,98845.69
2022-12-31T21:25:45.266Z,98847.50
2022-12-31T21:28:14.463Z,98853.69
2022-12-31T21:30:42.857Z,98850.59
2022-12-31T21:33:10.716Z,98847.09
2022-12-31T21:35:45.713Z,98846.09
2022-12-31T21:38:16.773Z,98853.94
2022-12-31T21:40:45.130Z,98845.28
2022-12-31T21:43:13.355Z,98851.13
2022-12-31T21:45:41.536Z,98864.34
2022-12-31T21:48:29.621Z,98859.28
2022-12-31T21:51:08.755Z,98862.34
2022-12-31T21:53:37.636Z,98859.53
2022-12-31T21:56:08.758Z,98863.75
2022-12-31T21:58:41.206Z,98866.56
2022-12-31T22:01:32.227Z,98868.22
2022-12-31T22:04:00.215Z,98870.19
2022-12-31T22:06:29.627Z,98877.91
2022-12-31T22:09:11.964Z,98876.66
2022-12-31T22:11:39.912Z,98877.63
2022-12-31T22:14:08.088Z,98886.31
2022-12-31T22:16:35.997Z,98885.03
2022-12-31T22:19:04.111Z,98878.19
2022-12-31T22:21:35.675Z,98884.75
2022-12-31T22:24:03.486Z,98886.19
2022-12-31T22:26:31.542Z,98885.34
2022-12-31T22:29:00.037Z,98889.00
2022-12-31T22:31:31.049Z,98884.50
2022-12-31T22:33:59.809Z,98881.97
2022-12-31T22:36:27.691Z,98897.41
2022-12-31T22:38:58.892Z,98904.28
2022-12-31T22:41:28.579Z,98910.72
2022-12-31T22:44:03.613Z,98905.25
2022-12-31T22:46:36.253Z,98902.16
2022-12-31T22:49:05.504Z,98921.47
2022-12-31T22:51:55.963Z,98917.84
2022-12-31T22:54:23.368Z,98929.53
2022-12-31T22:56:51.434Z,98921.38
2022-12-31T22:59:19.403Z,98921.50
2022-12-31T23:01:47.536Z,98921.75
2022-12-31T23:04:15.524Z,98922.28
2022-12-31T23:06:44.460Z,98920.06
2022-12-31T23:09:30.293Z,98921.78
2022-12-31T23:11:59.683Z,98919.09
2022-12-31T23:14:47.227Z,98923.16
2022-12-31T23:17:35.086Z,98920.22
2022-12-31T23:20:21.018Z,98925.97
2022-12-31T23:23:06.190Z,98921.22
2022-12-31T23:49:45.191Z,98930.69
2022-12-31T23:52:13.074Z,98932.41
2022-12-31T23:54:41.275Z,98937.34
2022-12-31T23:57:09.168Z,98936.78
2022-12-31T23:59:37.123Z,98934.97
